createdAt,value
2022-09-04T00:00:54.347Z,1004.08
2022-09-04T00:01:54.323Z,1004.03
2022-09-04T00:02:54.312Z,1004.09
2022-09-04T00:03:54.305Z,1004.05
2022-09-04T00:04:54.294Z,1004.05
2022-09-04T00:05:54.288Z,1004.06
2022-09-04T00:06:54.268Z,1004.05
2022-09-04T00:07:54.257Z,1004.08
2022-09-04T00:08:54.246Z,1004.05
2022-09-04T00:09:54.260Z,1004.02
2022-09-04T00:10:54.227Z,1004.04
2022-09-04T00:11:54.244Z,1004.05
2022-09-04T00:12:54.207Z,1004.06
2022-09-04T00:13:54.236Z,1004.06
2022-09-04T00:14:54.197Z,1004.15
2022-09-04T00:15:54.174Z,1004.05
2022-09-04T00:16:54.163Z,1004.13
2022-09-04T00:17:54.158Z,1004.08
2022-09-04T00:18:54.157Z,1003.98
2022-09-04T00:19:54.142Z,1004.13
2022-09-04T00:20:54.121Z,1004.11
2022-09-04T00:21:54.112Z,1004.12
2022-09-04T00:22:54.103Z,1004.13
2022-09-04T00:23:54.100Z,1004.12
2022-09-04T00:24:54.086Z,1004.12
2022-09-04T00:25:54.129Z,1004.13
2022-09-04T00:26:54.061Z,1004.14
2022-09-04T00:27:54.046Z,1004.13
2022-09-04T00:28:54.035Z,1004.2
2022-09-04T00:29:54.034Z,1004.16
2022-09-04T00:30:54.032Z,1004.14
2022-09-04T00:31:54.032Z,1004.15
2022-09-04T00:32:53.995Z,1004.18
2022-09-04T00:33:53.986Z,1004.18
2022-09-04T00:34:53.985Z,1004.21
2022-09-04T00:35:53.960Z,1004.23
2022-09-04T00:36:53.950Z,1004.2
2022-09-04T00:37:53.953Z,1004.22
2022-09-04T00:38:53.937Z,1004.17
2022-09-04T00:39:53.923Z,1004.25
2022-09-04T00:40:53.907Z,1004.23
2022-09-04T00:41:53.928Z,1004.29
2022-09-04T00:42:53.905Z,1004.24
2022-09-04T00:43:53.892Z,1004.19
2022-09-04T00:44:53.877Z,1004.29
2022-09-04T00:45:53.857Z,1004.29
2022-09-04T00:46:53.850Z,1004.27
2022-09-04T00:47:53.844Z,1004.28
2022-09-04T00:48:53.827Z,1004.26
2022-09-04T00:49:53.814Z,1004.3
2022-09-04T00:50:53.817Z,1004.31
2022-09-04T00:51:53.795Z,1004.31
2022-09-04T00:52:53.792Z,1004.31
2022-09-04T00:53:53.789Z,1004.32
2022-09-04T00:54:53.777Z,1004.32
2022-09-04T00:55:53.758Z,1004.34
2022-09-04T00:56:53.754Z,1004.3
2022-09-04T00:57:53.729Z,1004.34
2022-09-04T00:58:53.721Z,1004.39
2022-09-04T00:59:53.718Z,1004.31
2022-09-04T01:00:53.703Z,1004.41
2022-09-04T01:01:53.698Z,1004.41
2022-09-04T01:02:53.688Z,1004.41
2022-09-04T01:03:53.678Z,1004.41
2022-09-04T01:04:53.674Z,1004.37
2022-09-04T01:05:53.655Z,1004.45
2022-09-04T01:06:53.639Z,1004.44
2022-09-04T01:07:53.625Z,1004.4
2022-09-04T01:08:53.631Z,1004.43
2022-09-04T01:09:53.604Z,1004.41
2022-09-04T01:10:53.594Z,1004.38
2022-09-04T01:11:53.596Z,1004.44
2022-09-04T01:12:53.567Z,1004.49
2022-09-04T01:13:53.572Z,1004.42
2022-09-04T01:14:53.551Z,1004.46
2022-09-04T01:15:53.566Z,1004.4
2022-09-04T01:16:53.529Z,1004.45
2022-09-04T01:17:53.527Z,1004.46
2022-09-04T01:18:53.503Z,1004.43
2022-09-04T01:19:53.497Z,1004.41
2022-09-04T01:20:53.486Z,1004.43
2022-09-04T01:21:53.487Z,1004.44
2022-09-04T01:22:53.470Z,1004.4
2022-09-04T01:23:53.455Z,1004.43
2022-09-04T01:24:53.449Z,1004.43
2022-09-04T01:25:53.439Z,1004.42
2022-09-04T01:26:53.430Z,1004.38
2022-09-04T01:27:53.469Z,1004.41
2022-09-04T01:28:53.409Z,1004.42
2022-09-04T01:29:53.391Z,1004.4
2022-09-04T01:30:53.378Z,1004.39
2022-09-04T01:31:53.382Z,1004.35
2022-09-04T01:32:53.402Z,1004.35
2022-09-04T01:33:53.464Z,1004.39
2022-09-04T01:34:53.359Z,1004.37
2022-09-04T01:35:53.336Z,1004.36
2022-09-04T01:36:53.325Z,1004.35
2022-09-04T01:37:53.312Z,1004.4
2022-09-04T01:38:53.297Z,1004.4
2022-09-04T01:39:53.283Z,1004.39
2022-09-04T01:40:53.278Z,1004.4
2022-09-04T01:41:53.259Z,1004.39
2022-09-04T01:42:53.336Z,1004.34
2022-09-04T01:43:54.289Z,1004.34
2022-09-04T01:44:53.230Z,1004.36
2022-09-04T01:45:53.218Z,1004.35
2022-09-04T01:46:53.274Z,1004.38
2022-09-04T01:47:53.194Z,1004.41
2022-09-04T01:48:53.186Z,1004.34
2022-09-04T01:49:53.182Z,1004.35
2022-09-04T01:50:53.177Z,1004.31
2022-09-04T01:51:53.215Z,1004.34
2022-09-04T01:52:53.141Z,1004.35
2022-09-04T01:53:53.149Z,1004.37
2022-09-04T01:54:53.125Z,1004.38
2022-09-04T01:55:53.108Z,1004.34
2022-09-04T01:56:53.110Z,1004.35
2022-09-04T01:57:53.160Z,1004.35
2022-09-04T01:58:53.116Z,1004.35
2022-09-04T01:59:53.062Z,1004.34
2022-09-04T02:00:53.054Z,1004.32
2022-09-04T02:01:53.046Z,1004.35
2022-09-04T02:02:53.045Z,1004.28
2022-09-04T02:03:53.024Z,1004.34
2022-09-04T02:04:53.015Z,1004.32
2022-09-04T02:05:53.006Z,1004.27
2022-09-04T02:06:53.005Z,1004.38
2022-09-04T02:07:52.977Z,1004.33
2022-09-04T02:08:52.972Z,1004.35
2022-09-04T02:09:52.961Z,1004.36
2022-09-04T02:10:52.948Z,1004.36
2022-09-04T02:11:52.940Z,1004.36
2022-09-04T02:12:52.932Z,1004.38
2022-09-04T02:13:52.934Z,1004.42
2022-09-04T02:14:52.908Z,1004.4
2022-09-04T02:15:52.906Z,1004.42
2022-09-04T02:16:52.916Z,1004.43
2022-09-04T02:17:52.880Z,1004.42
2022-09-04T02:18:52.886Z,1004.44
2022-09-04T02:19:52.875Z,1004.37
2022-09-04T02:20:52.842Z,1004.38
2022-09-04T02:21:52.844Z,1004.42
2022-09-04T02:22:52.822Z,1004.42
2022-09-04T02:23:52.811Z,1004.43
2022-09-04T02:24:52.808Z,1004.42
2022-09-04T02:25:52.792Z,1004.43
2022-09-04T02:26:52.774Z,1004.45
2022-09-04T02:27:52.759Z,1004.44
2022-09-04T02:28:52.748Z,1004.46
2022-09-04T02:29:52.745Z,1004.46
2022-09-04T02:30:52.728Z,1004.43
2022-09-04T02:31:52.734Z,1004.39
2022-09-04T02:32:52.714Z,1004.41
2022-09-04T02:33:52.704Z,1004.43
2022-09-04T02:34:52.689Z,1004.37
2022-09-04T02:35:52.682Z,1004.42
2022-09-04T02:36:52.666Z,1004.44
2022-09-04T02:37:52.673Z,1004.39
2022-09-04T02:38:52.639Z,1004.39
2022-09-04T02:39:52.636Z,1004.42
2022-09-04T02:40:52.630Z,1004.42
2022-09-04T02:41:52.614Z,1004.41
2022-09-04T02:42:52.607Z,1004.41
2022-09-04T02:43:52.610Z,1004.37
2022-09-04T02:44:52.581Z,1004.36
2022-09-04T02:45:52.580Z,1004.36
2022-09-04T02:46:52.551Z,1004.33
2022-09-04T02:47:52.567Z,1004.35
2022-09-04T02:48:52.533Z,1004.37
2022-09-04T02:49:52.528Z,1004.33
2022-09-04T02:50:52.521Z,1004.33
2022-09-04T02:51:52.501Z,1004.37
2022-09-04T02:52:52.530Z,1004.38
2022-09-04T02:53:52.495Z,1004.37
2022-09-04T02:54:52.466Z,1004.34
2022-09-04T02:55:52.485Z,1004.35
2022-09-04T02:56:52.457Z,1004.33
2022-09-04T02:57:52.449Z,1004.37
2022-09-04T02:58:52.429Z,1004.39
2022-09-04T02:59:52.415Z,1004.41
2022-09-04T03:00:52.417Z,1004.37
2022-09-04T03:01:52.427Z,1004.47
2022-09-04T03:02:52.380Z,1004.38
2022-09-04T03:03:52.377Z,1004.44
2022-09-04T03:04:52.379Z,1004.42
2022-09-04T03:05:52.376Z,1004.42
2022-09-04T03:06:52.336Z,1004.44
2022-09-04T03:07:52.324Z,1004.42
2022-09-04T03:08:52.319Z,1004.49
2022-09-04T03:09:52.309Z,1004.48
2022-09-04T03:10:52.298Z,1004.48
2022-09-04T03:11:52.313Z,1004.5
2022-09-04T03:12:52.293Z,1004.45
2022-09-04T03:13:52.260Z,1004.44
2022-09-04T03:14:52.247Z,1004.43
2022-09-04T03:15:52.249Z,1004.45
2022-09-04T03:16:52.305Z,1004.46
2022-09-04T03:17:52.214Z,1004.43
2022-09-04T03:18:52.209Z,1004.47
2022-09-04T03:19:52.197Z,1004.42
2022-09-04T03:20:52.210Z,1004.52
2022-09-04T03:21:52.177Z,1004.51
2022-09-04T03:22:52.172Z,1004.51
2022-09-04T03:23:52.154Z,1004.54
2022-09-04T03:24:52.141Z,1004.62
2022-09-04T03:25:52.131Z,1004.62
2022-09-04T03:26:52.129Z,1004.67
2022-09-04T03:27:52.127Z,1004.65
2022-09-04T03:28:52.106Z,1004.64
2022-09-04T03:29:52.091Z,1004.61
2022-09-04T03:30:52.095Z,1004.66
2022-09-04T03:31:52.088Z,1004.65
2022-09-04T03:32:52.055Z,1004.69
2022-09-04T03:33:52.060Z,1004.7
2022-09-04T03:34:52.033Z,1004.67
2022-09-04T03:35:52.052Z,1004.68
2022-09-04T03:36:52.009Z,1004.69
2022-09-04T03:37:52.007Z,1004.69
2022-09-04T03:38:51.992Z,1004.76
2022-09-04T03:39:51.984Z,1004.72
2022-09-04T03:40:51.990Z,1004.79
2022-09-04T03:41:51.962Z,1004.72
2022-09-04T03:42:51.942Z,1004.7
2022-09-04T03:43:51.933Z,1004.77
2022-09-04T03:44:51.941Z,1004.78
2022-09-04T03:45:51.917Z,1004.78
2022-09-04T03:46:51.964Z,1004.81
2022-09-04T03:47:51.890Z,1004.81
2022-09-04T03:48:51.895Z,1004.77
2022-09-04T03:49:51.898Z,1004.84
2022-09-04T03:50:51.858Z,1004.84
2022-09-04T03:51:51.855Z,1004.78
2022-09-04T03:52:51.858Z,1004.75
2022-09-04T03:53:51.822Z,1004.8
2022-09-04T03:54:51.823Z,1004.78
2022-09-04T03:55:51.811Z,1004.77
2022-09-04T03:56:51.792Z,1004.74
2022-09-04T03:57:51.782Z,1004.73
2022-09-04T03:58:51.772Z,1004.74
2022-09-04T03:59:51.757Z,1004.71
2022-09-04T04:00:51.758Z,1004.7
2022-09-04T04:01:51.733Z,1004.7
2022-09-04T04:02:51.825Z,1004.67
2022-09-04T04:03:51.756Z,1004.72
2022-09-04T04:04:51.737Z,1004.69
2022-09-04T04:05:51.699Z,1004.69
2022-09-04T04:06:51.678Z,1004.75
2022-09-04T04:07:51.671Z,1004.71
2022-09-04T04:08:51.676Z,1004.68
2022-09-04T04:09:51.658Z,1004.77
2022-09-04T04:10:51.637Z,1004.8
2022-09-04T04:11:51.629Z,1004.78
2022-09-04T04:12:51.623Z,1004.77
2022-09-04T04:13:51.613Z,1004.78
2022-09-04T04:14:51.618Z,1004.82
2022-09-04T04:15:51.623Z,1004.83
2022-09-04T04:16:51.575Z,1004.85
2022-09-04T04:17:51.578Z,1004.85
2022-09-04T04:18:51.550Z,1004.86
2022-09-04T04:19:51.584Z,1004.85
2022-09-04T04:20:51.527Z,1004.82
2022-09-04T04:21:51.524Z,1004.83
2022-09-04T04:22:51.505Z,1004.89
2022-09-04T04:23:51.510Z,1005
2022-09-04T04:24:51.503Z,1004.94
2022-09-04T04:25:51.505Z,1004.95
2022-09-04T04:26:51.485Z,1004.94
2022-09-04T04:27:51.451Z,1004.93
2022-09-04T04:28:51.439Z,1004.94
2022-09-04T04:29:51.428Z,1004.96
2022-09-04T04:30:51.415Z,1004.94
2022-09-04T04:31:51.415Z,1005
2022-09-04T04:32:51.432Z,1004.99
2022-09-04T04:33:51.391Z,1004.98
2022-09-04T04:34:51.408Z,1005.02
2022-09-04T04:35:51.373Z,1005.04
2022-09-04T04:36:51.356Z,1005.06
2022-09-04T04:37:51.350Z,1005.06
2022-09-04T04:38:51.389Z,1005.04
2022-09-04T04:39:51.327Z,1005.05
2022-09-04T04:40:51.313Z,1005.08
2022-09-04T04:41:51.314Z,1005.06
2022-09-04T04:42:51.295Z,1005.07
2022-09-04T04:43:51.287Z,1005.07
2022-09-04T04:44:51.280Z,1005.12
2022-09-04T04:45:51.268Z,1005.13
2022-09-04T04:46:51.266Z,1005.17
2022-09-04T04:47:51.268Z,1005.21
2022-09-04T04:48:51.234Z,1005.19
2022-09-04T04:49:51.221Z,1005.24
2022-09-04T04:50:51.235Z,1005.24
2022-09-04T04:51:51.202Z,1005.26
2022-09-04T04:52:51.194Z,1005.35
2022-09-04T04:53:51.214Z,1005.36
2022-09-04T04:54:51.173Z,1005.33
2022-09-04T04:55:51.186Z,1005.33
2022-09-04T04:56:51.158Z,1005.33
2022-09-04T04:57:51.145Z,1005.34
2022-09-04T04:58:51.130Z,1005.33
2022-09-04T04:59:51.122Z,1005.32
2022-09-04T05:00:51.117Z,1005.39
2022-09-04T05:01:51.101Z,1005.38
2022-09-04T05:02:51.104Z,1005.37
2022-09-04T05:03:51.080Z,1005.39
2022-09-04T05:04:51.073Z,1005.4
2022-09-04T05:05:51.059Z,1005.4
2022-09-04T05:06:51.047Z,1005.45
2022-09-04T05:07:51.038Z,1005.39
2022-09-04T05:08:51.044Z,1005.45
2022-09-04T05:09:51.032Z,1005.42
2022-09-04T05:10:51.008Z,1005.4
2022-09-04T05:11:50.992Z,1005.4
2022-09-04T05:12:51.008Z,1005.44
2022-09-04T05:13:50.983Z,1005.44
2022-09-04T05:14:50.976Z,1005.43
2022-09-04T05:15:50.954Z,1005.44
2022-09-04T05:16:50.946Z,1005.45
2022-09-04T05:17:50.946Z,1005.43
2022-09-04T05:18:50.931Z,1005.43
2022-09-04T05:19:50.914Z,1005.49
2022-09-04T05:20:50.906Z,1005.51
2022-09-04T05:21:50.888Z,1005.51
2022-09-04T05:22:50.886Z,1005.56
2022-09-04T05:23:50.881Z,1005.58
2022-09-04T05:24:50.855Z,1005.62
2022-09-04T05:25:50.852Z,1005.56
2022-09-04T05:26:50.863Z,1005.56
2022-09-04T05:27:50.830Z,1005.6
2022-09-04T05:28:50.827Z,1005.61
2022-09-04T05:29:50.816Z,1005.6
2022-09-04T05:30:50.803Z,1005.6
2022-09-04T05:31:50.790Z,1005.62
2022-09-04T05:32:50.796Z,1005.7
2022-09-04T05:33:50.767Z,1005.68
2022-09-04T05:34:50.754Z,1005.73
2022-09-04T05:35:50.748Z,1005.69
2022-09-04T05:36:50.741Z,1005.71
2022-09-04T05:37:50.737Z,1005.73
2022-09-04T05:38:50.720Z,1005.74
2022-09-04T05:39:50.716Z,1005.8
2022-09-04T05:40:50.703Z,1005.81
2022-09-04T05:41:50.686Z,1005.79
2022-09-04T05:42:50.683Z,1005.84
2022-09-04T05:43:50.662Z,1005.83
2022-09-04T05:44:50.673Z,1005.79
2022-09-04T05:45:50.649Z,1005.81
2022-09-04T05:46:50.645Z,1005.8
2022-09-04T05:47:50.656Z,1005.77
2022-09-04T05:48:50.605Z,1005.79
2022-09-04T05:49:50.599Z,1005.85
2022-09-04T05:50:50.604Z,1005.81
2022-09-04T05:51:50.613Z,1005.82
2022-09-04T05:52:50.582Z,1005.83
2022-09-04T05:53:50.559Z,1005.86
2022-09-04T05:54:50.568Z,1005.88
2022-09-04T05:55:50.544Z,1005.81
2022-09-04T05:56:50.543Z,1005.82
2022-09-04T05:57:50.522Z,1005.85
2022-09-04T05:58:50.516Z,1005.87
2022-09-04T05:59:50.502Z,1005.82
2022-09-04T06:00:50.478Z,1005.85
2022-09-04T06:01:50.480Z,1005.86
2022-09-04T06:02:50.522Z,1005.88
2022-09-04T06:03:50.446Z,1005.89
2022-09-04T06:04:50.442Z,1005.91
2022-09-04T06:05:50.436Z,1005.92
2022-09-04T06:06:50.414Z,1005.88
2022-09-04T06:07:50.416Z,1005.93
2022-09-04T06:08:50.404Z,1005.85
2022-09-04T06:09:50.414Z,1005.89
2022-09-04T06:10:50.371Z,1005.94
2022-09-04T06:11:50.380Z,1005.9
2022-09-04T06:12:50.379Z,1005.93
2022-09-04T06:13:50.338Z,1005.93
2022-09-04T06:14:50.344Z,1005.93
2022-09-04T06:15:50.340Z,1005.95
2022-09-04T06:16:50.314Z,1005.95
2022-09-04T06:17:50.297Z,1005.98
2022-09-04T06:18:50.303Z,1006
2022-09-04T06:19:50.272Z,1006.01
2022-09-04T06:20:50.267Z,1005.98
2022-09-04T06:21:50.250Z,1005.99
2022-09-04T06:22:50.239Z,1006
2022-09-04T06:23:50.236Z,1005.98
2022-09-04T06:24:50.231Z,1005.99
2022-09-04T06:25:50.214Z,1005.99
2022-09-04T06:26:50.266Z,1006.08
2022-09-04T06:27:50.200Z,1005.95
2022-09-04T06:28:50.176Z,1006.03
2022-09-04T06:29:50.170Z,1005.99
2022-09-04T06:30:50.187Z,1005.99
2022-09-04T06:31:50.174Z,1005.98
2022-09-04T06:32:50.130Z,1006.03
2022-09-04T06:33:50.126Z,1006.04
2022-09-04T06:34:50.127Z,1006
2022-09-04T06:35:50.107Z,1005.97
2022-09-04T06:36:50.091Z,1005.97
2022-09-04T06:37:50.106Z,1005.95
2022-09-04T06:38:50.114Z,1005.97
2022-09-04T06:39:50.062Z,1005.97
2022-09-04T06:40:50.048Z,1005.93
2022-09-04T06:41:50.047Z,1005.96
2022-09-04T06:42:50.046Z,1005.99
2022-09-04T06:43:50.022Z,1005.96
2022-09-04T06:44:50.015Z,1005.99
2022-09-04T06:45:50.079Z,1005.98
2022-09-04T06:46:50.044Z,1005.88
2022-09-04T06:47:49.978Z,1005.96
2022-09-04T06:48:49.984Z,1005.94
2022-09-04T06:49:49.961Z,1005.93
2022-09-04T06:50:49.980Z,1005.97
2022-09-04T06:51:49.938Z,1005.96
2022-09-04T06:52:49.923Z,1005.97
2022-09-04T06:54:45.344Z,1005.99
2022-09-04T06:55:45.330Z,1005.98
2022-09-04T06:56:45.307Z,1005.96
2022-09-04T06:57:45.302Z,1006
2022-09-04T06:58:45.334Z,1006.01
2022-09-04T06:59:45.286Z,1006.05
2022-09-04T07:00:45.347Z,1006.09
2022-09-04T07:01:45.311Z,1006.09
2022-09-04T07:02:45.277Z,1006.14
2022-09-04T07:03:45.236Z,1006.18
2022-09-04T07:04:45.226Z,1006.2
2022-09-04T07:05:45.266Z,1006.21
2022-09-04T07:06:45.202Z,1006.24
2022-09-04T07:07:45.220Z,1006.22
2022-09-04T07:08:45.210Z,1006.28
2022-09-04T07:09:45.220Z,1006.23
2022-09-04T07:10:45.192Z,1006.17
2022-09-04T07:11:45.220Z,1006.24
2022-09-04T07:12:45.179Z,1006.24
2022-09-04T07:13:45.138Z,1006.22
2022-09-04T07:14:45.122Z,1006.26
2022-09-04T07:15:45.139Z,1006.28
2022-09-04T07:16:45.128Z,1006.32
2022-09-04T07:17:45.120Z,1006.33
2022-09-04T07:18:45.088Z,1006.34
2022-09-04T07:19:45.078Z,1006.33
2022-09-04T07:20:45.051Z,1006.29
2022-09-04T07:21:45.076Z,1006.34
2022-09-04T07:22:45.153Z,1006.35
2022-09-04T07:23:45.055Z,1006.35
2022-09-04T07:24:45.020Z,1006.33
2022-09-04T07:25:45.105Z,1006.31
2022-09-04T07:26:45.041Z,1006.29
2022-09-04T07:27:45.004Z,1006.25
2022-09-04T07:28:45.008Z,1006.3
2022-09-04T07:29:44.966Z,1006.29
2022-09-04T07:30:44.964Z,1006.27
2022-09-04T07:31:44.951Z,1006.33
2022-09-04T07:32:44.945Z,1006.27
2022-09-04T07:33:44.928Z,1006.3
2022-09-04T07:34:44.991Z,1006.34
2022-09-04T07:35:44.897Z,1006.33
2022-09-04T07:36:44.940Z,1006.33
2022-09-04T07:37:44.916Z,1006.41
2022-09-04T07:38:44.891Z,1006.43
2022-09-04T07:39:44.881Z,1006.44
2022-09-04T07:40:44.851Z,1006.47
2022-09-04T07:41:44.878Z,1006.49
2022-09-04T07:42:44.843Z,1006.53
2022-09-04T07:43:44.832Z,1006.52
2022-09-04T07:44:44.832Z,1006.5
2022-09-04T07:45:44.808Z,1006.46
2022-09-04T07:46:44.813Z,1006.43
2022-09-04T07:47:44.864Z,1006.49
2022-09-04T07:48:44.763Z,1006.48
2022-09-04T07:49:44.761Z,1006.43
2022-09-04T07:50:44.746Z,1006.48
2022-09-04T07:51:44.770Z,1006.52
2022-09-04T07:52:44.717Z,1006.5
2022-09-04T07:53:44.709Z,1006.57
2022-09-04T07:54:44.717Z,1006.58
2022-09-04T07:55:44.693Z,1006.59
2022-09-04T07:56:44.676Z,1006.58
2022-09-04T07:57:53.512Z,1006.66
2022-09-04T07:58:44.653Z,1006.69
2022-09-04T07:59:44.639Z,1006.64
2022-09-04T08:00:44.625Z,1006.71
2022-09-04T08:01:44.618Z,1006.72
2022-09-04T08:02:44.632Z,1006.74
2022-09-04T08:03:44.620Z,1006.79
2022-09-04T08:04:44.604Z,1006.79
2022-09-04T08:05:44.588Z,1006.72
2022-09-04T08:06:44.642Z,1006.78
2022-09-04T08:07:44.704Z,1006.8
2022-09-04T08:08:44.555Z,1006.77
2022-09-04T08:13:06.823Z,1006.8
2022-09-04T08:14:06.815Z,1006.82
2022-09-04T08:15:06.832Z,1006.72
2022-09-04T08:16:06.826Z,1006.77
2022-09-04T08:17:06.781Z,1006.79
2022-09-04T08:18:06.773Z,1006.76
2022-09-04T08:19:06.790Z,1006.8
2022-09-04T08:20:06.755Z,1006.75
2022-09-04T08:21:06.769Z,1006.76
2022-09-04T08:22:06.746Z,1006.72
2022-09-04T08:23:06.720Z,1006.72
2022-09-04T08:24:06.709Z,1006.76
2022-09-04T08:25:06.700Z,1006.8
2022-09-04T08:26:06.685Z,1006.8
2022-09-04T08:27:06.688Z,1006.79
2022-09-04T08:28:06.677Z,1006.82
2022-09-04T08:29:06.690Z,1006.81
2022-09-04T08:30:06.642Z,1006.82
2022-09-04T08:31:06.639Z,1006.87
2022-09-04T08:32:06.623Z,1006.8
2022-09-04T08:33:06.626Z,1006.82
2022-09-04T08:34:06.630Z,1006.79
2022-09-04T08:35:06.598Z,1006.83
2022-09-04T08:36:06.586Z,1006.81
2022-09-04T08:37:06.587Z,1006.82
2022-09-04T08:38:06.561Z,1006.88
2022-09-04T08:39:06.554Z,1006.84
2022-09-04T08:40:06.545Z,1006.88
2022-09-04T08:41:06.529Z,1006.89
2022-09-04T08:42:06.525Z,1006.9
2022-09-04T08:43:06.537Z,1006.93
2022-09-04T08:44:06.502Z,1006.92
2022-09-04T08:45:06.507Z,1006.97
2022-09-04T08:46:06.517Z,1006.97
2022-09-04T08:47:06.465Z,1007.01
2022-09-04T08:48:06.649Z,1007
2022-09-04T08:49:06.469Z,1007
2022-09-04T08:50:06.470Z,1006.99
2022-09-04T08:51:06.444Z,1007.02
2022-09-04T08:52:06.413Z,1006.96
2022-09-04T08:53:06.430Z,1006.94
2022-09-04T08:54:06.411Z,1006.99
2022-09-04T08:55:06.408Z,1006.91
2022-09-04T08:56:06.390Z,1006.97
2022-09-04T08:57:06.361Z,1006.94
2022-09-04T08:58:06.401Z,1006.99
2022-09-04T08:59:06.336Z,1007.01
2022-09-04T09:00:06.363Z,1006.98
2022-09-04T09:01:06.322Z,1006.97
2022-09-04T09:02:06.305Z,1006.99
2022-09-04T09:03:06.295Z,1007.04
2022-09-04T09:04:06.288Z,1007.04
2022-09-04T09:05:06.299Z,1007.09
2022-09-04T09:06:06.286Z,1007.05
2022-09-04T09:07:06.328Z,1007.07
2022-09-04T09:08:06.348Z,1007.05
2022-09-04T09:09:06.277Z,1007.05
2022-09-04T09:10:06.226Z,1007.01
2022-09-04T09:11:06.218Z,1007.07
2022-09-04T09:12:06.239Z,1007.12
2022-09-04T09:13:06.202Z,1007.05
2022-09-04T09:14:06.191Z,1007.04
2022-09-04T09:15:06.183Z,1007.01
2022-09-04T09:16:06.169Z,1007.03
2022-09-04T09:17:06.153Z,1006.98
2022-09-04T09:18:07.142Z,1006.93
2022-09-04T09:19:06.131Z,1006.89
2022-09-04T09:20:06.128Z,1006.86
2022-09-04T09:21:06.107Z,1006.89
2022-09-04T09:22:06.095Z,1006.92
2022-09-04T09:23:06.091Z,1006.93
2022-09-04T09:24:06.084Z,1006.9
2022-09-04T09:25:06.081Z,1006.84
2022-09-04T09:26:06.070Z,1006.88
2022-09-04T09:27:06.047Z,1006.86
2022-09-04T09:28:06.050Z,1006.85
2022-09-04T09:29:06.054Z,1006.83
2022-09-04T09:30:06.016Z,1006.9
2022-09-04T09:31:06.000Z,1006.9
2022-09-04T09:32:06.007Z,1006.84
2022-09-04T09:33:05.981Z,1006.86
2022-09-04T09:34:05.975Z,1006.84
2022-09-04T09:35:05.961Z,1006.81
2022-09-04T09:36:05.956Z,1006.83
2022-09-04T09:37:05.938Z,1006.77
2022-09-04T09:38:05.930Z,1006.83
2022-09-04T09:39:05.917Z,1006.8
2022-09-04T09:40:05.908Z,1006.92
2022-09-04T09:41:05.914Z,1006.9
2022-09-04T09:42:05.887Z,1006.84
2022-09-04T09:43:05.874Z,1006.87
2022-09-04T09:44:05.870Z,1006.89
2022-09-04T09:45:05.856Z,1006.82
2022-09-04T09:46:05.860Z,1006.85
2022-09-04T09:47:05.830Z,1006.87
2022-09-04T09:48:05.822Z,1006.87
2022-09-04T09:49:05.840Z,1006.91
2022-09-04T09:50:05.827Z,1006.87
2022-09-04T09:51:05.788Z,1006.89
2022-09-04T09:52:05.776Z,1006.85
2022-09-04T09:53:05.773Z,1006.86
2022-09-04T09:54:05.756Z,1006.87
2022-09-04T09:55:05.743Z,1006.89
2022-09-04T09:56:05.744Z,1006.82
2022-09-04T09:57:05.735Z,1006.83
2022-09-04T09:58:05.718Z,1006.77
2022-09-04T09:59:05.720Z,1006.79
2022-09-04T10:00:05.698Z,1006.83
2022-09-04T10:01:05.681Z,1006.79
2022-09-04T10:02:05.682Z,1006.82
2022-09-04T10:03:05.698Z,1006.78
2022-09-04T10:04:05.673Z,1006.8
2022-09-04T10:05:05.635Z,1006.79
2022-09-04T10:06:05.637Z,1006.79
2022-09-04T10:07:05.618Z,1006.83
2022-09-04T10:08:05.635Z,1006.85
2022-09-04T10:09:05.612Z,1006.92
2022-09-04T10:10:05.603Z,1006.89
2022-09-04T10:11:13.130Z,1006.92
2022-09-04T10:12:05.574Z,1006.92
2022-09-04T10:13:14.138Z,1006.94
2022-09-04T10:14:05.544Z,1006.93
2022-09-04T10:15:05.529Z,1006.95
2022-09-04T10:16:05.521Z,1007
2022-09-04T10:17:05.525Z,1006.97
2022-09-04T10:18:05.500Z,1006.97
2022-09-04T10:19:05.489Z,1006.95
2022-09-04T10:20:05.499Z,1007.01
2022-09-04T10:21:05.470Z,1006.97
2022-09-04T10:22:05.512Z,1006.98
2022-09-04T10:23:05.455Z,1007.07
2022-09-04T10:24:05.448Z,1007.03
2022-09-04T10:25:05.431Z,1006.96
2022-09-04T10:26:05.439Z,1006.98
2022-09-04T10:27:05.478Z,1007.02
2022-09-04T10:28:05.393Z,1007.09
2022-09-04T10:29:05.398Z,1007.03
2022-09-04T10:30:05.393Z,1007.03
2022-09-04T10:31:05.384Z,1007.07
2022-09-04T10:32:05.356Z,1007.02
2022-09-04T10:33:05.344Z,1007.04
2022-09-04T10:34:05.335Z,1006.99
2022-09-04T10:35:05.333Z,1006.98
2022-09-04T10:36:05.326Z,1006.84
2022-09-04T10:37:05.307Z,1006.88
2022-09-04T10:38:05.292Z,1006.95
2022-09-04T10:39:05.334Z,1006.88
2022-09-04T10:40:05.283Z,1006.88
2022-09-04T10:41:05.264Z,1006.94
2022-09-04T10:42:05.267Z,1006.93
2022-09-04T10:43:05.258Z,1007.08
2022-09-04T10:44:05.240Z,1007.04
2022-09-04T10:45:05.233Z,1007.1
2022-09-04T10:46:05.225Z,1007.13
2022-09-04T10:47:05.208Z,1007.15
2022-09-04T10:48:05.207Z,1007.14
2022-09-04T10:49:05.183Z,1007.11
2022-09-04T10:50:05.174Z,1007.12
2022-09-04T10:51:05.166Z,1007.11
2022-09-04T10:52:05.159Z,1007.14
2022-09-04T10:53:05.144Z,1007.21
2022-09-04T10:54:05.139Z,1007.13
2022-09-04T10:55:05.138Z,1007.15
2022-09-04T10:56:05.140Z,1007.19
2022-09-04T10:57:05.131Z,1007.19
2022-09-04T10:58:05.100Z,1007.25
2022-09-04T10:59:05.104Z,1007.21
2022-09-04T11:00:05.096Z,1007.25
2022-09-04T11:01:05.079Z,1007.24
2022-09-04T11:02:05.063Z,1007.14
2022-09-04T11:03:05.051Z,1007.12
2022-09-04T11:04:05.041Z,1007.16
2022-09-04T11:05:05.029Z,1007.12
2022-09-04T11:06:05.018Z,1007.12
2022-09-04T11:07:05.016Z,1007.19
2022-09-04T11:08:05.003Z,1007.12
2022-09-04T11:09:04.991Z,1007.16
2022-09-04T11:10:04.987Z,1007.19
2022-09-04T11:11:04.984Z,1007.11
2022-09-04T11:12:04.961Z,1007.12
2022-09-04T11:13:04.958Z,1007.08
2022-09-04T11:14:04.942Z,1007.11
2022-09-04T11:15:04.983Z,1007.13
2022-09-04T11:16:04.942Z,1007.07
2022-09-04T11:17:04.915Z,1007.08
2022-09-04T11:18:04.896Z,1007.09
2022-09-04T11:19:04.898Z,1007.09
2022-09-04T11:20:04.884Z,1007.08
2022-09-04T11:21:04.869Z,1007.14
2022-09-04T11:22:04.878Z,1007.12
2022-09-04T11:23:04.860Z,1007.18
2022-09-04T11:24:04.838Z,1007.18
2022-09-04T11:25:04.840Z,1007.13
2022-09-04T11:26:04.841Z,1007.11
2022-09-04T11:27:04.811Z,1007.06
2022-09-04T11:28:04.807Z,1007.14
2022-09-04T11:29:04.871Z,1007.11
2022-09-04T11:30:04.844Z,1007.13
2022-09-04T11:31:04.779Z,1007.06
2022-09-04T11:32:04.783Z,1007.1
2022-09-04T11:33:04.760Z,1007.1
2022-09-04T11:34:04.750Z,1007.08
2022-09-04T11:35:04.748Z,1007.1
2022-09-04T11:36:04.726Z,1007.11
2022-09-04T11:37:04.727Z,1007.05
2022-09-04T11:38:04.711Z,1007.07
2022-09-04T11:39:04.702Z,1007.04
2022-09-04T11:40:04.696Z,1007.02
2022-09-04T11:41:04.688Z,1007.03
2022-09-04T11:42:04.667Z,1007.03
2022-09-04T11:43:04.671Z,1007.08
2022-09-04T11:44:04.654Z,1007.13
2022-09-04T11:45:04.653Z,1007.11
2022-09-04T11:46:04.649Z,1007.05
2022-09-04T11:47:04.755Z,1007.07
2022-09-04T11:48:04.613Z,1007.06
2022-09-04T11:49:04.606Z,1007.05
2022-09-04T11:50:04.625Z,1007.12
2022-09-04T11:51:05.498Z,1007.08
2022-09-04T11:52:04.582Z,1007.04
2022-09-04T11:53:04.579Z,1007.03
2022-09-04T11:54:04.564Z,1007.04
2022-09-04T11:55:04.574Z,1007.02
2022-09-04T11:56:04.550Z,1007.03
2022-09-04T11:57:04.531Z,1007.02
2022-09-04T11:58:04.534Z,1006.96
2022-09-04T11:59:04.509Z,1006.91
2022-09-04T12:00:04.497Z,1006.87
2022-09-04T12:01:04.494Z,1006.82
2022-09-04T12:02:04.487Z,1006.85
2022-09-04T12:03:04.477Z,1006.83
2022-09-04T12:04:04.472Z,1006.83
2022-09-04T12:05:04.456Z,1006.79
2022-09-04T12:06:04.445Z,1006.8
2022-09-04T12:07:04.442Z,1006.88
2022-09-04T12:08:04.445Z,1006.84
2022-09-04T12:09:04.422Z,1006.92
2022-09-04T12:10:04.416Z,1006.85
2022-09-04T12:11:04.403Z,1006.96
2022-09-04T12:12:04.390Z,1006.86
2022-09-04T12:13:04.391Z,1006.9